sensor_id;sensor_type;location;lat;lon;timestamp;P1;durP1;ratioP1;P2;durP2;ratioP2
67602;SDS011;54417;47.454;18.918;2022-08-19T00:01:32;10.68;;;6.47;;
67602;SDS011;54417;47.454;18.918;2022-08-19T00:07:00;12.52;;;6.18;;
67602;SDS011;54417;47.454;18.918;2022-08-19T00:12:24;7.63;;;6.38;;
67602;SDS011;54417;47.454;18.918;2022-08-19T00:17:48;9.77;;;5.72;;
67602;SDS011;54417;47.454;18.918;2022-08-19T00:23:13;7.32;;;6.32;;
67602;SDS011;54417;47.454;18.918;2022-08-19T00:28:38;9.77;;;6.82;;
67602;SDS011;54417;47.454;18.918;2022-08-19T00:34:02;9.52;;;6.43;;
67602;SDS011;54417;47.454;18.918;2022-08-19T00:39:27;12.52;;;7.57;;
67602;SDS011;54417;47.454;18.918;2022-08-19T00:44:52;13.77;;;6.35;;
67602;SDS011;54417;47.454;18.918;2022-08-19T00:50:16;10.50;;;6.45;;
67602;SDS011;54417;47.454;18.918;2022-08-19T00:55:45;11.85;;;7.65;;
67602;SDS011;54417;47.454;18.918;2022-08-19T01:01:12;6.82;;;6.10;;
67602;SDS011;54417;47.454;18.918;2022-08-19T01:06:37;10.98;;;6.95;;
67602;SDS011;54417;47.454;18.918;2022-08-19T01:12:04;13.27;;;6.28;;
67602;SDS011;54417;47.454;18.918;2022-08-19T01:17:28;12.57;;;5.90;;
67602;SDS011;54417;47.454;18.918;2022-08-19T01:22:54;8.68;;;5.68;;
67602;SDS011;54417;47.454;18.918;2022-08-19T01:28:21;11.70;;;6.38;;
67602;SDS011;54417;47.454;18.918;2022-08-19T01:34:01;10.93;;;6.28;;
67602;SDS011;54417;47.454;18.918;2022-08-19T01:39:26;12.35;;;6.82;;
67602;SDS011;54417;47.454;18.918;2022-08-19T01:44:50;13.93;;;6.15;;
67602;SDS011;54417;47.454;18.918;2022-08-19T01:50:14;11.52;;;6.18;;
67602;SDS011;54417;47.454;18.918;2022-08-19T01:55:40;7.35;;;6.25;;
67602;SDS011;54417;47.454;18.918;2022-08-19T02:01:05;10.82;;;7.50;;
67602;SDS011;54417;47.454;18.918;2022-08-19T02:06:30;8.90;;;6.82;;
67602;SDS011;54417;47.454;18.918;2022-08-19T02:11:56;8.02;;;6.15;;
67602;SDS011;54417;47.454;18.918;2022-08-19T02:17:20;12.85;;;6.75;;
67602;SDS011;54417;47.454;18.918;2022-08-19T02:22:44;11.90;;;6.68;;
67602;SDS011;54417;47.454;18.918;2022-08-19T02:28:09;13.98;;;6.95;;
67602;SDS011;54417;47.454;18.918;2022-08-19T02:33:39;11.30;;;6.97;;
67602;SDS011;54417;47.454;18.918;2022-08-19T02:39:03;8.73;;;6.13;;
67602;SDS011;54417;47.454;18.918;2022-08-19T02:44:28;8.18;;;6.43;;
67602;SDS011;54417;47.454;18.918;2022-08-19T02:49:53;6.88;;;6.13;;
67602;SDS011;54417;47.454;18.918;2022-08-19T02:55:16;6.32;;;5.32;;
67602;SDS011;54417;47.454;18.918;2022-08-19T03:00:43;9.18;;;5.90;;
67602;SDS011;54417;47.454;18.918;2022-08-19T03:06:09;8.57;;;6.90;;
67602;SDS011;54417;47.454;18.918;2022-08-19T03:11:34;8.13;;;6.97;;
67602;SDS011;54417;47.454;18.918;2022-08-19T03:16:59;7.35;;;5.70;;
67602;SDS011;54417;47.454;18.918;2022-08-19T03:22:25;10.40;;;7.40;;
67602;SDS011;54417;47.454;18.918;2022-08-19T03:27:49;8.07;;;6.55;;
67602;SDS011;54417;47.454;18.918;2022-08-19T03:33:14;8.98;;;7.43;;
67602;SDS011;54417;47.454;18.918;2022-08-19T03:38:47;10.10;;;7.47;;
67602;SDS011;54417;47.454;18.918;2022-08-19T03:44:18;8.30;;;6.70;;
67602;SDS011;54417;47.454;18.918;2022-08-19T03:49:45;12.70;;;6.93;;
67602;SDS011;54417;47.454;18.918;2022-08-19T03:55:09;16.52;;;7.32;;
67602;SDS011;54417;47.454;18.918;2022-08-19T04:00:32;13.88;;;7.40;;
67602;SDS011;54417;47.454;18.918;2022-08-19T04:05:57;12.85;;;6.53;;
67602;SDS011;54417;47.454;18.918;2022-08-19T04:11:22;10.73;;;7.32;;
67602;SDS011;54417;47.454;18.918;2022-08-19T04:17:05;10.63;;;7.18;;
67602;SDS011;54417;47.454;18.918;2022-08-19T04:22:30;11.73;;;7.15;;
67602;SDS011;54417;47.454;18.918;2022-08-19T04:27:53;9.02;;;7.43;;
67602;SDS011;54417;47.454;18.918;2022-08-19T04:33:18;13.48;;;7.63;;
67602;SDS011;54417;47.454;18.918;2022-08-19T04:38:53;10.55;;;6.70;;
67602;SDS011;54417;47.454;18.918;2022-08-19T04:44:17;8.77;;;7.18;;
67602;SDS011;54417;47.454;18.918;2022-08-19T04:49:41;9.95;;;7.35;;
67602;SDS011;54417;47.454;18.918;2022-08-19T04:55:07;11.85;;;7.28;;
67602;SDS011;54417;47.454;18.918;2022-08-19T05:00:32;12.13;;;6.90;;
67602;SDS011;54417;47.454;18.918;2022-08-19T05:06:03;15.75;;;6.78;;
67602;SDS011;54417;47.454;18.918;2022-08-19T05:11:31;12.07;;;6.55;;
67602;SDS011;54417;47.454;18.918;2022-08-19T05:16:57;11.48;;;6.20;;
67602;SDS011;54417;47.454;18.918;2022-08-19T05:22:42;9.18;;;6.07;;
67602;SDS011;54417;47.454;18.918;2022-08-19T05:28:08;10.48;;;6.00;;
67602;SDS011;54417;47.454;18.918;2022-08-19T05:33:31;10.80;;;6.20;;
67602;SDS011;54417;47.454;18.918;2022-08-19T05:38:55;7.55;;;5.57;;
67602;SDS011;54417;47.454;18.918;2022-08-19T05:44:20;12.43;;;5.85;;
67602;SDS011;54417;47.454;18.918;2022-08-19T05:49:44;9.00;;;5.53;;
67602;SDS011;54417;47.454;18.918;2022-08-19T05:55:08;8.70;;;5.80;;
67602;SDS011;54417;47.454;18.918;2022-08-19T06:00:34;10.30;;;6.25;;
67602;SDS011;54417;47.454;18.918;2022-08-19T06:05:57;10.27;;;5.90;;
67602;SDS011;54417;47.454;18.918;2022-08-19T06:11:22;12.70;;;5.90;;
67602;SDS011;54417;47.454;18.918;2022-08-19T06:16:59;8.95;;;5.88;;
67602;SDS011;54417;47.454;18.918;2022-08-19T06:22:28;6.45;;;5.22;;
67602;SDS011;54417;47.454;18.918;2022-08-19T06:27:51;7.60;;;5.15;;
67602;SDS011;54417;47.454;18.918;2022-08-19T06:33:37;14.32;;;6.00;;
67602;SDS011;54417;47.454;18.918;2022-08-19T06:39:03;13.30;;;5.32;;
67602;SDS011;54417;47.454;18.918;2022-08-19T06:44:29;7.40;;;5.30;;
67602;SDS011;54417;47.454;18.918;2022-08-19T06:50:05;16.40;;;5.80;;
67602;SDS011;54417;47.454;18.918;2022-08-19T06:55:30;12.50;;;6.18;;
67602;SDS011;54417;47.454;18.918;2022-08-19T07:00:54;11.07;;;4.70;;
67602;SDS011;54417;47.454;18.918;2022-08-19T07:06:21;7.45;;;5.20;;
67602;SDS011;54417;47.454;18.918;2022-08-19T07:12:05;9.82;;;5.57;;
67602;SDS011;54417;47.454;18.918;2022-08-19T07:17:31;8.40;;;6.13;;
67602;SDS011;54417;47.454;18.918;2022-08-19T07:22:57;7.97;;;5.50;;
67602;SDS011;54417;47.454;18.918;2022-08-19T07:28:20;9.20;;;5.35;;
67602;SDS011;54417;47.454;18.918;2022-08-19T07:33:46;10.30;;;5.70;;
67602;SDS011;54417;47.454;18.918;2022-08-19T07:39:16;6.53;;;5.22;;
67602;SDS011;54417;47.454;18.918;2022-08-19T07:44:42;10.53;;;5.33;;
67602;SDS011;54417;47.454;18.918;2022-08-19T07:50:11;11.68;;;5.10;;
67602;SDS011;54417;47.454;18.918;2022-08-19T07:55:37;6.85;;;5.10;;
67602;SDS011;54417;47.454;18.918;2022-08-19T08:01:06;8.18;;;5.22;;
67602;SDS011;54417;47.454;18.918;2022-08-19T08:06:30;7.78;;;5.20;;
67602;SDS011;54417;47.454;18.918;2022-08-19T08:12:14;10.75;;;4.78;;
67602;SDS011;54417;47.454;18.918;2022-08-19T08:17:55;10.75;;;4.45;;
67602;SDS011;54417;47.454;18.918;2022-08-19T08:23:19;11.10;;;5.30;;
67602;SDS011;54417;47.454;18.918;2022-08-19T08:34:13;10.45;;;4.93;;
67602;SDS011;54417;47.454;18.918;2022-08-19T08:39:37;12.50;;;4.68;;
67602;SDS011;54417;47.454;18.918;2022-08-19T08:45:03;8.15;;;4.78;;
67602;SDS011;54417;47.454;18.918;2022-08-19T08:50:38;5.35;;;4.20;;
67602;SDS011;54417;47.454;18.918;2022-08-19T08:56:06;8.90;;;4.47;;
67602;SDS011;54417;47.454;18.918;2022-08-19T09:01:39;7.55;;;4.25;;
67602;SDS011;54417;47.454;18.918;2022-08-19T09:07:09;9.55;;;4.97;;
67602;SDS011;54417;47.454;18.918;2022-08-19T09:13:00;4.90;;;4.50;;
67602;SDS011;54417;47.454;18.918;2022-08-19T09:18:39;9.98;;;4.65;;
67602;SDS011;54417;47.454;18.918;2022-08-19T09:24:04;9.13;;;4.38;;
67602;SDS011;54417;47.454;18.918;2022-08-19T09:29:28;9.65;;;4.65;;
67602;SDS011;54417;47.454;18.918;2022-08-19T09:34:53;8.02;;;4.68;;
67602;SDS011;54417;47.454;18.918;2022-08-19T09:40:20;9.52;;;5.30;;
67602;SDS011;54417;47.454;18.918;2022-08-19T09:45:45;5.80;;;4.45;;
67602;SDS011;54417;47.454;18.918;2022-08-19T09:51:11;9.38;;;4.43;;
67602;SDS011;54417;47.454;18.918;2022-08-19T09:56:37;6.72;;;4.47;;
67602;SDS011;54417;47.454;18.918;2022-08-19T10:02:03;7.95;;;4.72;;
67602;SDS011;54417;47.454;18.918;2022-08-19T10:07:33;9.63;;;4.20;;
67602;SDS011;54417;47.454;18.918;2022-08-19T10:12:57;10.13;;;4.63;;
67602;SDS011;54417;47.454;18.918;2022-08-19T10:18:22;5.82;;;4.57;;
67602;SDS011;54417;47.454;18.918;2022-08-19T10:23:49;8.88;;;4.15;;
67602;SDS011;54417;47.454;18.918;2022-08-19T10:29:14;7.03;;;4.70;;
67602;SDS011;54417;47.454;18.918;2022-08-19T10:34:54;8.55;;;4.63;;
67602;SDS011;54417;47.454;18.918;2022-08-19T10:40:19;7.78;;;4.22;;
67602;SDS011;54417;47.454;18.918;2022-08-19T10:45:43;11.15;;;4.80;;
67602;SDS011;54417;47.454;18.918;2022-08-19T10:51:16;6.40;;;4.28;;
67602;SDS011;54417;47.454;18.918;2022-08-19T10:57:08;8.85;;;3.92;;
67602;SDS011;54417;47.454;18.918;2022-08-19T11:02:32;5.55;;;4.32;;
67602;SDS011;54417;47.454;18.918;2022-08-19T11:07:56;5.35;;;4.03;;
67602;SDS011;54417;47.454;18.918;2022-08-19T11:13:25;6.38;;;5.40;;
67602;SDS011;54417;47.454;18.918;2022-08-19T11:18:50;9.68;;;5.57;;
67602;SDS011;54417;47.454;18.918;2022-08-19T11:24:16;14.18;;;6.72;;
67602;SDS011;54417;47.454;18.918;2022-08-19T11:29:43;12.07;;;9.05;;
67602;SDS011;54417;47.454;18.918;2022-08-19T11:35:07;13.85;;;9.88;;
67602;SDS011;54417;47.454;18.918;2022-08-19T11:40:33;12.52;;;8.98;;
67602;SDS011;54417;47.454;18.918;2022-08-19T11:45:58;13.65;;;8.02;;
67602;SDS011;54417;47.454;18.918;2022-08-19T11:51:23;12.85;;;8.98;;
67602;SDS011;54417;47.454;18.918;2022-08-19T11:56:47;13.77;;;10.32;;
67602;SDS011;54417;47.454;18.918;2022-08-19T12:02:12;17.98;;;11.10;;
67602;SDS011;54417;47.454;18.918;2022-08-19T12:07:37;17.33;;;11.32;;
67602;SDS011;54417;47.454;18.918;2022-08-19T12:13:01;16.77;;;10.90;;
67602;SDS011;54417;47.454;18.918;2022-08-19T12:18:27;15.05;;;10.57;;
67602;SDS011;54417;47.454;18.918;2022-08-19T12:23:50;15.00;;;9.80;;
67602;SDS011;54417;47.454;18.918;2022-08-19T12:29:17;15.17;;;9.90;;
67602;SDS011;54417;47.454;18.918;2022-08-19T12:34:46;19.42;;;9.43;;
67602;SDS011;54417;47.454;18.918;2022-08-19T12:40:10;15.88;;;8.68;;
67602;SDS011;54417;47.454;18.918;2022-08-19T12:45:34;10.77;;;5.50;;
67602;SDS011;54417;47.454;18.918;2022-08-19T12:51:07;14.18;;;4.57;;
67602;SDS011;54417;47.454;18.918;2022-08-19T12:56:34;8.13;;;3.88;;
67602;SDS011;54417;47.454;18.918;2022-08-19T13:01:59;9.57;;;3.75;;
67602;SDS011;54417;47.454;18.918;2022-08-19T13:07:24;10.90;;;4.13;;
67602;SDS011;54417;47.454;18.918;2022-08-19T13:12:49;8.98;;;3.90;;
67602;SDS011;54417;47.454;18.918;2022-08-19T13:18:15;9.23;;;4.00;;
67602;SDS011;54417;47.454;18.918;2022-08-19T13:23:40;9.85;;;4.20;;
67602;SDS011;54417;47.454;18.918;2022-08-19T13:29:05;14.02;;;3.83;;
67602;SDS011;54417;47.454;18.918;2022-08-19T13:34:46;7.47;;;3.65;;
67602;SDS011;54417;47.454;18.918;2022-08-19T13:40:12;22.55;;;4.38;;
67602;SDS011;54417;47.454;18.918;2022-08-19T13:45:40;31.65;;;6.00;;
67602;SDS011;54417;47.454;18.918;2022-08-19T13:51:04;26.45;;;4.00;;
67602;SDS011;54417;47.454;18.918;2022-08-19T13:56:29;22.77;;;4.25;;
67602;SDS011;54417;47.454;18.918;2022-08-19T14:01:57;18.67;;;3.90;;
67602;SDS011;54417;47.454;18.918;2022-08-19T14:07:21;21.77;;;3.57;;
67602;SDS011;54417;47.454;18.918;2022-08-19T14:12:47;15.80;;;3.50;;
67602;SDS011;54417;47.454;18.918;2022-08-19T14:18:11;14.52;;;3.50;;
67602;SDS011;54417;47.454;18.918;2022-08-19T14:23:35;15.75;;;3.38;;
67602;SDS011;54417;47.454;18.918;2022-08-19T14:29:00;25.50;;;3.38;;
67602;SDS011;54417;47.454;18.918;2022-08-19T14:34:24;12.00;;;2.75;;
67602;SDS011;54417;47.454;18.918;2022-08-19T14:39:48;10.32;;;2.40;;
67602;SDS011;54417;47.454;18.918;2022-08-19T14:45:13;17.13;;;2.63;;
67602;SDS011;54417;47.454;18.918;2022-08-19T14:50:37;14.38;;;3.00;;
67602;SDS011;54417;47.454;18.918;2022-08-19T14:56:01;14.25;;;2.97;;
67602;SDS011;54417;47.454;18.918;2022-08-19T15:01:31;8.00;;;2.13;;
67602;SDS011;54417;47.454;18.918;2022-08-19T15:06:54;15.20;;;2.03;;
67602;SDS011;54417;47.454;18.918;2022-08-19T15:12:18;17.27;;;2.70;;
67602;SDS011;54417;47.454;18.918;2022-08-19T15:17:44;17.63;;;2.97;;
67602;SDS011;54417;47.454;18.918;2022-08-19T15:23:09;16.48;;;3.45;;
67602;SDS011;54417;47.454;18.918;2022-08-19T15:28:33;12.85;;;3.10;;
67602;SDS011;54417;47.454;18.918;2022-08-19T15:33:58;10.93;;;2.75;;
67602;SDS011;54417;47.454;18.918;2022-08-19T15:39:22;14.05;;;3.00;;
67602;SDS011;54417;47.454;18.918;2022-08-19T15:44:46;16.58;;;3.58;;
67602;SDS011;54417;47.454;18.918;2022-08-19T15:50:13;14.30;;;2.95;;
67602;SDS011;54417;47.454;18.918;2022-08-19T15:55:41;14.18;;;2.70;;
67602;SDS011;54417;47.454;18.918;2022-08-19T16:01:06;18.02;;;3.50;;
67602;SDS011;54417;47.454;18.918;2022-08-19T16:06:50;20.52;;;3.47;;
67602;SDS011;54417;47.454;18.918;2022-08-19T16:12:16;22.80;;;3.55;;
67602;SDS011;54417;47.454;18.918;2022-08-19T16:17:40;13.55;;;3.03;;
67602;SDS011;54417;47.454;18.918;2022-08-19T16:23:19;18.83;;;3.57;;
67602;SDS011;54417;47.454;18.918;2022-08-19T16:28:43;14.50;;;3.38;;
67602;SDS011;54417;47.454;18.918;2022-08-19T16:34:09;22.30;;;3.80;;
67602;SDS011;54417;47.454;18.918;2022-08-19T16:39:35;17.27;;;3.28;;
67602;SDS011;54417;47.454;18.918;2022-08-19T16:45:00;11.75;;;3.38;;
67602;SDS011;54417;47.454;18.918;2022-08-19T16:50:25;16.48;;;3.28;;
67602;SDS011;54417;47.454;18.918;2022-08-19T16:56:11;18.88;;;3.45;;
67602;SDS011;54417;47.454;18.918;2022-08-19T17:01:35;16.30;;;3.00;;
67602;SDS011;54417;47.454;18.918;2022-08-19T17:06:59;15.23;;;3.47;;
67602;SDS011;54417;47.454;18.918;2022-08-19T17:12:24;13.63;;;3.20;;
67602;SDS011;54417;47.454;18.918;2022-08-19T17:17:53;15.68;;;3.08;;
67602;SDS011;54417;47.454;18.918;2022-08-19T17:23:21;8.67;;;2.97;;
67602;SDS011;54417;47.454;18.918;2022-08-19T17:29:06;8.40;;;3.30;;
67602;SDS011;54417;47.454;18.918;2022-08-19T17:34:30;8.65;;;3.30;;
67602;SDS011;54417;47.454;18.918;2022-08-19T17:39:54;10.20;;;2.72;;
67602;SDS011;54417;47.454;18.918;2022-08-19T17:45:19;7.60;;;2.70;;
67602;SDS011;54417;47.454;18.918;2022-08-19T17:50:44;14.85;;;2.60;;
67602;SDS011;54417;47.454;18.918;2022-08-19T17:56:09;15.65;;;3.58;;
67602;SDS011;54417;47.454;18.918;2022-08-19T18:01:36;13.80;;;2.78;;
67602;SDS011;54417;47.454;18.918;2022-08-19T18:07:15;11.18;;;2.30;;
67602;SDS011;54417;47.454;18.918;2022-08-19T18:12:42;7.78;;;2.88;;
67602;SDS011;54417;47.454;18.918;2022-08-19T18:18:07;11.75;;;3.33;;
67602;SDS011;54417;47.454;18.918;2022-08-19T18:23:36;17.50;;;3.20;;
67602;SDS011;54417;47.454;18.918;2022-08-19T18:29:07;20.90;;;3.70;;
67602;SDS011;54417;47.454;18.918;2022-08-19T18:34:32;24.20;;;3.88;;
67602;SDS011;54417;47.454;18.918;2022-08-19T18:39:58;20.75;;;4.13;;
67602;SDS011;54417;47.454;18.918;2022-08-19T18:45:39;18.77;;;5.07;;
67602;SDS011;54417;47.454;18.918;2022-08-19T18:51:23;34.05;;;6.60;;
67602;SDS011;54417;47.454;18.918;2022-08-19T18:56:51;21.50;;;5.90;;
67602;SDS011;54417;47.454;18.918;2022-08-19T19:02:16;17.77;;;7.00;;
67602;SDS011;54417;47.454;18.918;2022-08-19T19:07:42;15.18;;;6.95;;
67602;SDS011;54417;47.454;18.918;2022-08-19T19:13:06;16.48;;;7.28;;
67602;SDS011;54417;47.454;18.918;2022-08-19T19:18:29;15.30;;;6.43;;
67602;SDS011;54417;47.454;18.918;2022-08-19T19:23:55;40.72;;;9.77;;
67602;SDS011;54417;47.454;18.918;2022-08-19T19:29:19;17.90;;;6.10;;
67602;SDS011;54417;47.454;18.918;2022-08-19T19:34:43;20.13;;;6.05;;
67602;SDS011;54417;47.454;18.918;2022-08-19T19:40:09;16.33;;;5.32;;
67602;SDS011;54417;47.454;18.918;2022-08-19T19:45:33;21.77;;;6.70;;
67602;SDS011;54417;47.454;18.918;2022-08-19T19:50:58;24.52;;;7.60;;
67602;SDS011;54417;47.454;18.918;2022-08-19T19:56:24;22.42;;;8.60;;
67602;SDS011;54417;47.454;18.918;2022-08-19T20:01:48;21.08;;;7.63;;
67602;SDS011;54417;47.454;18.918;2022-08-19T20:07:15;20.75;;;8.65;;
67602;SDS011;54417;47.454;18.918;2022-08-19T20:13:01;25.13;;;9.05;;
67602;SDS011;54417;47.454;18.918;2022-08-19T20:18:25;18.17;;;9.23;;
67602;SDS011;54417;47.454;18.918;2022-08-19T20:23:49;27.50;;;9.70;;
67602;SDS011;54417;47.454;18.918;2022-08-19T20:29:32;20.00;;;10.60;;
67602;SDS011;54417;47.454;18.918;2022-08-19T20:35:02;19.02;;;10.75;;
67602;SDS011;54417;47.454;18.918;2022-08-19T20:40:27;29.67;;;12.18;;
67602;SDS011;54417;47.454;18.918;2022-08-19T20:45:54;21.60;;;12.60;;
67602;SDS011;54417;47.454;18.918;2022-08-19T20:51:18;29.83;;;14.63;;
67602;SDS011;54417;47.454;18.918;2022-08-19T20:56:42;25.40;;;14.68;;
67602;SDS011;54417;47.454;18.918;2022-08-19T21:02:07;27.20;;;15.05;;
67602;SDS011;54417;47.454;18.918;2022-08-19T21:07:32;27.80;;;17.95;;
67602;SDS011;54417;47.454;18.918;2022-08-19T21:13:00;34.85;;;18.17;;
67602;SDS011;54417;47.454;18.918;2022-08-19T21:18:26;34.60;;;18.15;;
67602;SDS011;54417;47.454;18.918;2022-08-19T21:23:50;31.15;;;17.83;;
67602;SDS011;54417;47.454;18.918;2022-08-19T21:29:14;40.80;;;16.70;;
67602;SDS011;54417;47.454;18.918;2022-08-19T21:34:39;31.83;;;15.98;;
67602;SDS011;54417;47.454;18.918;2022-08-19T21:40:07;28.42;;;17.92;;
67602;SDS011;54417;47.454;18.918;2022-08-19T21:45:32;25.02;;;14.68;;
67602;SDS011;54417;47.454;18.918;2022-08-19T21:50:57;26.27;;;14.93;;
67602;SDS011;54417;47.454;18.918;2022-08-19T21:56:21;27.98;;;14.32;;
67602;SDS011;54417;47.454;18.918;2022-08-19T22:01:45;19.02;;;13.45;;
67602;SDS011;54417;47.454;18.918;2022-08-19T22:07:21;35.92;;;17.00;;
67602;SDS011;54417;47.454;18.918;2022-08-19T22:12:45;32.53;;;17.77;;
67602;SDS011;54417;47.454;18.918;2022-08-19T22:18:12;27.00;;;15.15;;
67602;SDS011;54417;47.454;18.918;2022-08-19T22:23:41;30.05;;;15.88;;
67602;SDS011;54417;47.454;18.918;2022-08-19T22:29:06;25.63;;;16.10;;
67602;SDS011;54417;47.454;18.918;2022-08-19T22:34:29;33.13;;;17.65;;
67602;SDS011;54417;47.454;18.918;2022-08-19T22:39:56;30.40;;;18.27;;
67602;SDS011;54417;47.454;18.918;2022-08-19T22:45:21;22.38;;;16.95;;
67602;SDS011;54417;47.454;18.918;2022-08-19T22:50:45;25.00;;;16.00;;
67602;SDS011;54417;47.454;18.918;2022-08-19T22:56:26;26.55;;;15.15;;
67602;SDS011;54417;47.454;18.918;2022-08-19T23:01:49;26.10;;;13.73;;
67602;SDS011;54417;47.454;18.918;2022-08-19T23:07:14;22.35;;;13.20;;
67602;SDS011;54417;47.454;18.918;2022-08-19T23:12:41;16.38;;;9.88;;
67602;SDS011;54417;47.454;18.918;2022-08-19T23:18:08;23.27;;;12.43;;
67602;SDS011;54417;47.454;18.918;2022-08-19T23:23:32;22.52;;;12.50;;
67602;SDS011;54417;47.454;18.918;2022-08-19T23:29:02;16.10;;;10.15;;
67602;SDS011;54417;47.454;18.918;2022-08-19T23:34:43;15.55;;;10.35;;
67602;SDS011;54417;47.454;18.918;2022-08-19T23:40:07;14.35;;;8.93;;
67602;SDS011;54417;47.454;18.918;2022-08-19T23:45:35;15.43;;;9.27;;
67602;SDS011;54417;47.454;18.918;2022-08-19T23:51:00;15.90;;;8.65;;
67602;SDS011;54417;47.454;18.918;2022-08-19T23:56:25;19.40;;;9.07;;
